createdAt,value
2022-10-18T00:02:09.106Z,15.75
2022-10-18T00:04:56.587Z,15.68
2022-10-18T00:07:45.305Z,15.64
2022-10-18T00:10:32.486Z,15.57
2022-10-18T00:13:20.876Z,15.59
2022-10-18T00:16:19.185Z,15.55
2022-10-18T00:19:06.884Z,15.60
2022-10-18T00:21:54.135Z,15.67
2022-10-18T00:24:43.142Z,15.61
2022-10-18T00:27:31.014Z,15.58
2022-10-18T00:30:18.586Z,15.56
2022-10-18T00:33:05.821Z,15.57
2022-10-18T00:35:53.308Z,15.60
2022-10-18T00:38:41.148Z,15.63
2022-10-18T00:41:32.894Z,15.67
2022-10-18T00:45:12.301Z,15.62
2022-10-18T00:48:03.426Z,15.77
2022-10-18T00:50:52.330Z,15.79
2022-10-18T00:53:40.155Z,15.69
2022-10-18T00:56:28.035Z,15.74
2022-10-18T00:59:18.356Z,15.64
2022-10-18T01:02:07.232Z,15.51
2022-10-18T01:04:54.301Z,15.45
2022-10-18T01:08:04.149Z,15.46
2022-10-18T01:11:02.178Z,15.43
2022-10-18T01:14:05.669Z,15.44
2022-10-18T01:17:00.750Z,15.47
2022-10-18T01:20:42.053Z,15.47
2022-10-18T01:23:41.031Z,15.48
2022-10-18T01:26:42.061Z,15.48
2022-10-18T01:29:52.915Z,15.49
2022-10-18T01:32:48.781Z,15.47
2022-10-18T01:35:40.667Z,15.44
2022-10-18T01:38:31.051Z,15.39
2022-10-18T01:41:21.433Z,15.40
2022-10-18T01:44:12.736Z,15.38
2022-10-18T01:47:01.215Z,15.36
2022-10-18T01:49:49.670Z,15.38
2022-10-18T01:52:37.596Z,15.45
2022-10-18T01:55:32.381Z,15.43
2022-10-18T01:58:23.645Z,15.42
2022-10-18T02:01:20.758Z,15.42
2022-10-18T02:04:18.199Z,15.40
2022-10-18T02:07:15.009Z,15.37
2022-10-18T02:10:10.030Z,15.37
2022-10-18T02:12:58.163Z,15.37
2022-10-18T02:15:52.422Z,15.37
2022-10-18T02:18:43.183Z,15.37
2022-10-18T02:21:31.986Z,15.37
2022-10-18T02:24:23.227Z,15.37
2022-10-18T02:27:11.346Z,15.42
2022-10-18T02:29:59.616Z,15.41
2022-10-18T02:32:52.575Z,15.42
2022-10-18T02:35:46.071Z,15.42
2022-10-18T02:38:34.222Z,15.45
2022-10-18T02:41:26.854Z,15.44
2022-10-18T02:44:14.725Z,15.42
2022-10-18T02:47:11.039Z,15.46
2022-10-18T02:49:58.292Z,15.51
2022-10-18T02:52:45.777Z,15.60
2022-10-18T02:55:33.365Z,15.64
2022-10-18T02:58:22.030Z,15.53
2022-10-18T03:01:09.466Z,15.44
2022-10-18T03:03:56.825Z,15.32
2022-10-18T03:06:44.718Z,15.23
2022-10-18T03:09:32.469Z,15.14
2022-10-18T03:12:19.875Z,15.08
2022-10-18T03:15:09.658Z,15.14
2022-10-18T03:17:57.080Z,15.21
2022-10-18T03:20:45.046Z,15.26
2022-10-18T03:23:32.265Z,15.31
2022-10-18T03:26:21.490Z,15.36
2022-10-18T03:29:08.817Z,15.54
2022-10-18T03:31:57.678Z,15.58
2022-10-18T03:34:45.260Z,15.53
2022-10-18T03:37:32.970Z,15.50
2022-10-18T03:40:20.871Z,15.45
2022-10-18T03:43:08.176Z,15.37
2022-10-18T03:45:55.873Z,15.35
2022-10-18T03:48:44.693Z,15.38
2022-10-18T03:51:32.660Z,15.35
2022-10-18T03:54:20.227Z,15.32
2022-10-18T03:57:07.698Z,15.31
2022-10-18T03:59:55.039Z,15.31
2022-10-18T04:02:42.152Z,15.33
2022-10-18T04:05:31.654Z,15.34
2022-10-18T04:08:20.305Z,15.30
2022-10-18T04:11:09.993Z,15.23
2022-10-18T04:13:57.825Z,15.21
2022-10-18T04:16:45.454Z,15.17
2022-10-18T04:19:33.078Z,15.17
2022-10-18T04:22:21.590Z,15.17
2022-10-18T04:25:09.343Z,15.15
2022-10-18T04:27:57.299Z,15.19
2022-10-18T04:30:44.815Z,15.24
2022-10-18T04:33:32.481Z,15.30
2022-10-18T04:36:19.881Z,15.27
2022-10-18T04:39:08.744Z,15.25
2022-10-18T04:41:56.289Z,15.27
2022-10-18T04:44:43.592Z,15.26
2022-10-18T04:47:31.151Z,15.26
2022-10-18T04:50:19.182Z,15.30
2022-10-18T04:53:06.301Z,15.28
2022-10-18T04:55:55.576Z,15.30
2022-10-18T04:58:43.158Z,15.23
2022-10-18T05:01:31.018Z,15.21
2022-10-18T05:04:18.261Z,15.24
2022-10-18T05:07:06.642Z,15.24
2022-10-18T05:09:53.822Z,15.27
2022-10-18T05:12:43.844Z,15.28
2022-10-18T05:15:31.350Z,15.32
2022-10-18T05:18:18.950Z,15.33
2022-10-18T05:21:06.251Z,15.31
2022-10-18T05:23:56.987Z,15.26
2022-10-18T05:26:44.755Z,15.27
2022-10-18T05:29:34.125Z,15.25
2022-10-18T05:32:21.594Z,15.24
2022-10-18T05:35:09.938Z,15.26
2022-10-18T05:37:57.337Z,15.23
2022-10-18T05:40:44.881Z,15.24
2022-10-18T05:43:31.969Z,15.29
2022-10-18T05:46:21.189Z,15.37
2022-10-18T05:49:08.645Z,15.33
2022-10-18T05:51:56.125Z,15.40
2022-10-18T05:54:43.034Z,15.51
2022-10-18T05:57:31.093Z,15.62
2022-10-18T06:00:19.293Z,15.68
2022-10-18T06:03:08.248Z,15.49
2022-10-18T06:06:00.516Z,15.36
2022-10-18T06:08:50.686Z,15.45
2022-10-18T06:11:38.408Z,15.67
2022-10-18T06:14:25.701Z,15.74
2022-10-18T06:17:13.584Z,15.68
2022-10-18T06:20:02.464Z,15.50
2022-10-18T06:22:52.625Z,15.44
2022-10-18T06:25:40.713Z,15.44
2022-10-18T06:28:28.261Z,15.60
2022-10-18T06:31:16.499Z,15.50
2022-10-18T06:34:04.538Z,15.40
2022-10-18T06:36:56.596Z,15.33
2022-10-18T06:39:45.882Z,15.30
2022-10-18T06:42:33.623Z,15.28
2022-10-18T06:45:20.853Z,15.28
2022-10-18T06:48:08.878Z,15.35
2022-10-18T06:50:58.298Z,15.38
2022-10-18T06:54:05.956Z,15.33
2022-10-18T06:56:57.637Z,15.33
2022-10-18T06:59:45.150Z,15.38
2022-10-18T07:02:32.690Z,15.40
2022-10-18T07:05:20.532Z,15.49
2022-10-18T07:08:07.899Z,15.40
2022-10-18T07:10:57.315Z,15.38
2022-10-18T07:13:44.606Z,15.46
2022-10-18T07:16:33.850Z,15.43
2022-10-18T07:19:21.425Z,15.45
2022-10-18T07:22:09.279Z,15.56
2022-10-18T07:24:56.953Z,15.59
2022-10-18T07:27:45.586Z,15.57
2022-10-18T07:30:33.313Z,15.68
2022-10-18T07:33:20.975Z,15.74
2022-10-18T07:36:11.184Z,15.68
2022-10-18T07:38:59.634Z,15.63
2022-10-18T07:41:47.360Z,15.61
2022-10-18T07:44:36.116Z,15.57
2022-10-18T07:47:23.555Z,15.56
2022-10-18T07:50:11.333Z,15.57
2022-10-18T07:52:58.707Z,15.55
2022-10-18T07:55:46.405Z,15.55
2022-10-18T07:58:33.850Z,15.55
2022-10-18T08:01:23.676Z,15.53
2022-10-18T08:04:16.209Z,15.51
2022-10-18T08:07:03.947Z,15.51
2022-10-18T08:09:51.303Z,15.52
2022-10-18T08:12:38.884Z,15.55
2022-10-18T08:15:26.624Z,15.64
2022-10-18T08:18:15.837Z,15.60
2022-10-18T08:21:04.495Z,15.55
2022-10-18T08:23:53.761Z,15.55
2022-10-18T08:26:41.055Z,15.53
2022-10-18T08:29:31.749Z,15.57
2022-10-18T08:32:20.119Z,15.53
2022-10-18T08:35:09.717Z,15.60
2022-10-18T08:37:56.858Z,15.63
2022-10-18T08:40:45.351Z,15.59
2022-10-18T08:43:39.297Z,15.66
2022-10-18T08:46:26.866Z,15.76
2022-10-18T08:49:24.090Z,15.85
2022-10-18T08:52:20.428Z,15.83
2022-10-18T08:55:15.802Z,15.87
2022-10-18T08:58:05.344Z,15.89
2022-10-18T09:01:03.820Z,15.85
2022-10-18T09:04:20.749Z,15.84
2022-10-18T09:07:25.671Z,15.91
2022-10-18T09:10:27.025Z,15.99
2022-10-18T09:13:37.798Z,16.03
2022-10-18T09:16:35.207Z,16.07
2022-10-18T09:19:37.088Z,16.24
2022-10-18T09:22:34.098Z,16.28
2022-10-18T09:25:25.221Z,16.32
2022-10-18T09:28:21.145Z,16.33
2022-10-18T09:31:17.594Z,16.28
2022-10-18T09:34:11.689Z,16.17
2022-10-18T09:36:59.201Z,16.14
2022-10-18T09:39:51.126Z,16.18
2022-10-18T09:42:41.714Z,16.20
2022-10-18T09:45:32.200Z,16.19
2022-10-18T09:48:25.226Z,16.09
2022-10-18T09:51:17.757Z,16.09
2022-10-18T09:54:16.661Z,16.02
2022-10-18T09:57:09.580Z,15.96
2022-10-18T09:59:59.143Z,15.96
2022-10-18T10:02:47.070Z,15.95
2022-10-18T10:05:34.941Z,15.96
2022-10-18T10:08:34.616Z,15.92
2022-10-18T10:11:31.544Z,15.80
2022-10-18T10:14:23.309Z,15.94
2022-10-18T10:17:23.572Z,15.98
2022-10-18T10:20:19.805Z,16.22
2022-10-18T10:23:09.533Z,16.26
2022-10-18T10:25:59.619Z,16.41
2022-10-18T10:28:49.147Z,16.45
2022-10-18T10:31:38.117Z,16.45
2022-10-18T10:34:31.002Z,16.50
2022-10-18T10:37:35.057Z,16.60
2022-10-18T10:40:27.835Z,16.76
2022-10-18T10:43:36.582Z,16.91
2022-10-18T10:46:35.836Z,16.79
2022-10-18T10:49:39.762Z,16.96
2022-10-18T10:52:31.750Z,17.06
2022-10-18T10:55:34.991Z,17.11
2022-10-18T10:58:23.791Z,17.18
2022-10-18T11:01:26.367Z,17.20
2022-10-18T11:04:30.460Z,17.30
2022-10-18T11:07:24.445Z,17.27
2022-10-18T11:10:16.616Z,17.19
2022-10-18T11:13:14.803Z,17.30
2022-10-18T11:16:08.361Z,17.64
2022-10-18T11:18:58.891Z,17.78
2022-10-18T11:21:48.048Z,17.80
2022-10-18T11:24:37.181Z,17.78
2022-10-18T11:27:29.566Z,18.05
2022-10-18T11:30:38.587Z,18.23
2022-10-18T11:34:07.110Z,18.26
2022-10-18T11:37:09.650Z,17.87
2022-10-18T11:40:15.558Z,17.61
2022-10-18T11:43:12.115Z,17.53
2022-10-18T11:46:06.567Z,17.57
2022-10-18T11:49:12.919Z,17.47
2022-10-18T11:52:14.641Z,17.63
2022-10-18T11:55:31.906Z,17.56
2022-10-18T11:58:39.459Z,17.61
2022-10-18T12:01:35.827Z,17.65
2022-10-18T12:04:25.938Z,17.67
2022-10-18T12:07:21.193Z,17.45
2022-10-18T12:10:26.349Z,17.48
2022-10-18T12:13:34.375Z,17.51
2022-10-18T12:16:39.236Z,17.63
2022-10-18T12:19:36.068Z,17.44
2022-10-18T12:22:30.166Z,17.53
2022-10-18T12:25:20.027Z,17.67
2022-10-18T12:28:15.314Z,17.68
2022-10-18T12:31:14.003Z,17.89
2022-10-18T12:34:04.479Z,17.76
2022-10-18T12:40:10.193Z,17.79
2022-10-18T12:43:00.156Z,17.87
2022-10-18T12:45:54.081Z,17.98
2022-10-18T12:48:45.340Z,17.99
2022-10-18T12:51:32.792Z,18.04
2022-10-18T12:54:28.093Z,18.08
2022-10-18T12:57:24.878Z,17.86
2022-10-18T13:00:55.234Z,17.89
2022-10-18T13:03:56.452Z,17.75
2022-10-18T13:07:20.347Z,17.65
2022-10-18T13:10:41.462Z,17.68
2022-10-18T13:13:46.089Z,17.61
2022-10-18T13:16:42.172Z,17.60
2022-10-18T13:19:39.659Z,17.66
2022-10-18T13:22:49.830Z,17.66
2022-10-18T13:25:50.972Z,17.61
2022-10-18T13:28:50.738Z,17.61
2022-10-18T13:31:45.024Z,17.57
2022-10-18T13:34:35.286Z,17.61
2022-10-18T13:37:25.646Z,17.52
2022-10-18T13:40:24.316Z,17.56
2022-10-18T13:43:41.736Z,17.58
2022-10-18T13:47:02.374Z,17.43
2022-10-18T13:50:12.931Z,17.20
2022-10-18T13:53:30.577Z,17.19
2022-10-18T13:56:34.718Z,17.30
2022-10-18T14:02:58.504Z,17.39
2022-10-18T14:05:54.260Z,17.44
2022-10-18T14:08:47.430Z,17.52
2022-10-18T14:11:46.201Z,17.41
2022-10-18T14:14:41.920Z,17.41
2022-10-18T14:20:40.024Z,17.46
2022-10-18T14:23:36.528Z,17.36
2022-10-18T14:26:24.266Z,17.29
2022-10-18T14:29:19.931Z,17.23
2022-10-18T14:32:11.607Z,17.21
2022-10-18T14:35:30.647Z,17.10
2022-10-18T14:38:14.813Z,17.09
2022-10-18T14:41:15.260Z,17.09
2022-10-18T14:44:19.908Z,17.01
2022-10-18T14:47:16.316Z,17.03
2022-10-18T14:50:04.038Z,16.98
2022-10-18T14:52:51.640Z,16.96
2022-10-18T14:55:43.118Z,16.97
2022-10-18T14:58:32.583Z,17.01
2022-10-18T15:01:22.682Z,16.95
2022-10-18T15:04:12.702Z,16.93
2022-10-18T15:07:03.052Z,16.83
2022-10-18T15:09:50.980Z,16.76
2022-10-18T15:13:04.530Z,16.72
2022-10-18T15:15:51.626Z,16.65
2022-10-18T15:18:39.334Z,16.60
2022-10-18T15:21:27.116Z,16.55
2022-10-18T15:24:22.992Z,16.45
2022-10-18T15:27:16.365Z,16.39
2022-10-18T15:30:08.498Z,16.32
2022-10-18T15:32:58.734Z,16.30
2022-10-18T15:35:46.644Z,16.24
2022-10-18T15:38:36.836Z,16.19
2022-10-18T15:41:42.854Z,16.07
2022-10-18T15:44:34.855Z,16.10
2022-10-18T15:47:24.410Z,16.03
2022-10-18T15:50:38.068Z,15.98
2022-10-18T15:53:50.813Z,15.87
2022-10-18T15:56:41.615Z,15.75
2022-10-18T15:59:32.594Z,15.69
2022-10-18T16:02:22.179Z,15.56
2022-10-18T16:05:18.644Z,15.48
2022-10-18T16:08:07.592Z,15.40
2022-10-18T16:10:55.957Z,15.30
2022-10-18T16:13:43.997Z,15.29
2022-10-18T16:16:32.308Z,15.19
2022-10-18T16:19:22.934Z,15.08
2022-10-18T16:22:16.691Z,14.95
2022-10-18T16:25:08.452Z,14.87
2022-10-18T16:27:57.893Z,14.76
2022-10-18T16:30:56.229Z,14.62
2022-10-18T16:33:45.505Z,14.57
2022-10-18T16:36:38.687Z,14.51
2022-10-18T16:39:35.828Z,14.44
2022-10-18T16:42:24.917Z,14.34
2022-10-18T16:45:12.666Z,14.22
2022-10-18T16:48:00.032Z,14.09
2022-10-18T16:50:48.090Z,13.99
2022-10-18T16:53:35.718Z,13.85
2022-10-18T16:56:28.210Z,13.73
2022-10-18T16:59:24.463Z,13.60
2022-10-18T17:02:12.226Z,13.54
2022-10-18T17:04:59.910Z,13.56
2022-10-18T17:07:48.230Z,13.44
2022-10-18T17:10:35.706Z,13.35
2022-10-18T17:13:26.211Z,13.27
2022-10-18T17:16:24.259Z,13.14
2022-10-18T17:19:12.826Z,13.10
2022-10-18T17:22:02.676Z,12.95
2022-10-18T17:24:50.699Z,12.87
2022-10-18T17:27:38.221Z,12.76
2022-10-18T17:30:26.990Z,12.72
2022-10-18T17:33:15.739Z,12.67
2022-10-18T17:36:03.542Z,12.58
2022-10-18T17:38:52.209Z,12.50
2022-10-18T17:41:39.660Z,12.40
2022-10-18T17:44:27.161Z,12.29
2022-10-18T17:47:16.200Z,12.21
2022-10-18T17:50:04.079Z,12.09
2022-10-18T17:52:51.909Z,11.98
2022-10-18T17:55:39.471Z,11.85
2022-10-18T17:58:27.211Z,11.82
2022-10-18T18:01:16.332Z,11.75
2022-10-18T18:04:05.809Z,11.69
2022-10-18T18:06:54.059Z,11.56
2022-10-18T18:09:42.131Z,11.44
2022-10-18T18:12:29.940Z,11.39
2022-10-18T18:15:17.592Z,11.33
2022-10-18T18:18:04.935Z,11.24
2022-10-18T18:20:55.187Z,11.16
2022-10-18T18:23:43.164Z,11.16
2022-10-18T18:26:33.306Z,11.18
2022-10-18T18:29:21.054Z,11.05
2022-10-18T18:32:08.201Z,11.02
2022-10-18T18:34:55.755Z,11.08
2022-10-18T18:37:44.743Z,10.86
2022-10-18T18:40:32.041Z,10.71
2022-10-18T18:43:23.170Z,10.51
2022-10-18T18:46:12.915Z,10.47
2022-10-18T18:49:01.121Z,10.45
2022-10-18T18:51:49.457Z,10.47
2022-10-18T18:54:38.220Z,10.44
2022-10-18T18:57:26.083Z,10.56
2022-10-18T19:00:15.189Z,10.52
2022-10-18T19:03:02.905Z,10.46
2022-10-18T19:05:50.448Z,10.41
2022-10-18T19:08:40.872Z,10.36
2022-10-18T19:11:32.582Z,10.24
2022-10-18T19:17:13.493Z,10.12
2022-10-18T19:20:01.388Z,10.12
2022-10-18T19:22:48.826Z,10.07
2022-10-18T19:25:35.832Z,10.05
2022-10-18T19:28:25.029Z,9.99
2022-10-18T19:31:12.620Z,9.92
2022-10-18T19:34:00.188Z,9.87
2022-10-18T19:36:49.302Z,9.78
2022-10-18T19:39:37.190Z,9.71
2022-10-18T19:42:30.305Z,9.75
2022-10-18T19:45:19.857Z,9.71
2022-10-18T19:48:11.239Z,9.71
2022-10-18T19:51:07.076Z,9.70
2022-10-18T19:53:57.756Z,9.58
2022-10-18T19:56:45.680Z,9.58
2022-10-18T19:59:34.570Z,9.56
2022-10-18T20:02:23.003Z,9.50
2022-10-18T20:05:11.130Z,9.49
2022-10-18T20:07:58.629Z,9.44
2022-10-18T20:10:46.162Z,9.43
2022-10-18T20:13:33.784Z,9.42
2022-10-18T20:16:27.892Z,9.35
2022-10-18T20:19:17.309Z,9.33
2022-10-18T20:22:04.831Z,9.20
2022-10-18T20:24:52.358Z,9.03
2022-10-18T20:27:40.041Z,9.08
2022-10-18T20:30:27.701Z,8.99
2022-10-18T20:33:15.337Z,8.98
2022-10-18T20:36:06.660Z,8.98
2022-10-18T20:38:54.962Z,8.91
2022-10-18T20:41:42.928Z,8.92
2022-10-18T20:44:32.086Z,8.78
2022-10-18T20:47:19.989Z,8.72
2022-10-18T20:50:07.969Z,8.68
2022-10-18T20:52:56.300Z,8.71
2022-10-18T20:55:43.786Z,8.71
2022-10-18T20:58:31.278Z,8.72
2022-10-18T21:01:20.078Z,8.68
2022-10-18T21:04:10.350Z,8.60
2022-10-18T21:06:57.564Z,8.58
2022-10-18T21:09:46.806Z,8.63
2022-10-18T21:12:35.154Z,8.52
2022-10-18T21:15:22.764Z,8.40
2022-10-18T21:18:10.334Z,8.35
2022-10-18T21:21:07.564Z,8.35
2022-10-18T21:23:55.135Z,8.30
2022-10-18T21:26:43.805Z,8.25
2022-10-18T21:29:31.724Z,8.23
2022-10-18T21:32:19.263Z,8.23
2022-10-18T21:35:07.706Z,8.21
2022-10-18T21:37:55.299Z,8.16
2022-10-18T21:40:44.750Z,8.17
2022-10-18T21:43:33.440Z,8.15
2022-10-18T21:46:22.294Z,8.14
2022-10-18T21:49:09.557Z,8.17
2022-10-18T21:51:57.283Z,8.14
2022-10-18T21:54:44.416Z,8.12
2022-10-18T21:57:31.581Z,8.09
2022-10-18T22:00:20.564Z,8.03
2022-10-18T22:03:09.068Z,7.99
2022-10-18T22:06:01.475Z,7.93
2022-10-18T22:08:51.641Z,7.86
2022-10-18T22:11:41.892Z,7.90
2022-10-18T22:14:29.566Z,7.79
2022-10-18T22:17:18.330Z,7.69
2022-10-18T22:20:07.037Z,7.62
2022-10-18T22:22:55.825Z,7.61
2022-10-18T22:25:43.309Z,7.55
2022-10-18T22:28:30.544Z,7.54
2022-10-18T22:31:20.464Z,7.52
2022-10-18T22:34:12.352Z,7.56
2022-10-18T22:36:59.525Z,7.52
2022-10-18T22:39:47.235Z,7.52
2022-10-18T22:45:26.517Z,7.47
2022-10-18T22:48:14.162Z,7.44
2022-10-18T22:51:04.074Z,7.51
2022-10-18T22:53:51.630Z,7.43
2022-10-18T22:56:38.960Z,7.30
2022-10-18T22:59:26.091Z,7.28
2022-10-18T23:02:13.407Z,7.24
2022-10-18T23:05:00.992Z,7.27
2022-10-18T23:07:52.519Z,7.18
2022-10-18T23:10:40.771Z,7.20
2022-10-18T23:13:29.385Z,7.23
2022-10-18T23:16:17.493Z,7.19
2022-10-18T23:19:05.647Z,7.25
2022-10-18T23:21:52.919Z,7.20
2022-10-18T23:24:42.109Z,7.20
2022-10-18T23:27:30.547Z,7.16
2022-10-18T23:30:18.228Z,7.22
2022-10-18T23:33:05.703Z,7.25
2022-10-18T23:35:52.889Z,7.15
2022-10-18T23:38:40.941Z,7.03
2022-10-18T23:41:29.997Z,6.99
2022-10-18T23:44:17.297Z,6.95
2022-10-18T23:47:05.379Z,6.98
2022-10-18T23:49:53.262Z,7.00
2022-10-18T23:52:40.493Z,6.92
2022-10-18T23:55:28.768Z,6.87
2022-10-18T23:58:17.886Z,6.85
